Latest Weather Observations for Oakey

IDQ60801

Issued at 9:32 pm EST Monday 22 December 2014 (issued every 30 minutes, with the page automatically refreshed every 10 minutes)

About weather observations | Map of weather stations | Latest weather observations for QLD | Other Formats
Station Details ID: 041359 Name: OAKEY AERO Lat: -27.40 Lon: 151.74 Height: 405.69 m
Data from the previous 72 hours. | See also: Recent months at Oakey
Date/Time
EST
Temp
°C
App
Temp
°C
Dew
Point
Rel
Hum
%
Delta-T
°C
Wind Press
QNH
hPa
Press
MSL
hPa
Rain
since 9 am
mm
Dir
 
Spd
km/h
Gust
km/h
Spd
kts
Gust
kts
22/09:30pm 20.5 16.9 14.2 67 3.7 NE 26 32 14 17 1017.9 - 0.0
22/09:00pm 21.0 17.9 14.4 66 3.9 NE 24 32 13 17 1017.7 1015.7 0.0
22/08:30pm 21.5 18.9 13.7 61 4.6 NE 20 24 11 13 1017.7 - 0.0
22/08:00pm 22.4 19.9 14.0 59 5.0 NE 20 28 11 15 1017.5 - 0.0
22/07:30pm 23.1 20.2 14.1 57 5.4 NE 22 30 12 16 1017.0 - 0.0
22/07:00pm 24.0 20.3 13.8 53 6.1 NE 26 33 14 18 1016.5 - 0.0
22/06:30pm 24.9 21.3 13.1 48 7.0 NE 24 30 13 16 1016.1 - 0.0
22/06:00pm 26.1 22.3 12.5 42 8.0 NE 24 30 13 16 1015.5 1013.5 0.0
22/05:30pm 26.9 22.6 12.2 40 8.6 E 26 30 14 16 1015.1 - 0.0
22/05:00pm 27.4 24.0 12.6 40 8.8 ENE 22 33 12 18 1014.9 - 0.0
22/04:30pm 27.5 23.4 12.7 40 8.8 ENE 26 37 14 20 1014.9 - 0.0
22/04:00pm 28.0 24.3 12.8 39 9.1 ESE 24 32 13 17 1015.2 - 0.0
22/03:30pm 28.3 24.8 13.4 40 9.0 ESE 24 32 13 17 1015.3 - 0.0
22/03:00pm 27.9 24.1 12.3 38 9.2 E 24 33 13 18 1015.8 1013.7 0.0
22/02:30pm 27.5 24.7 13.1 41 8.6 ESE 20 28 11 15 1016.0 - 0.0
22/02:00pm 27.4 25.9 13.0 41 8.6 NE 13 17 7 9 1016.3 - 0.0
22/01:30pm 27.7 26.5 14.0 43 8.3 E 13 17 7 9 1016.7 - 0.0
22/01:00pm 27.2 26.1 15.2 47 7.4 ENE 15 26 8 14 1017.1 - 0.0
22/12:30pm 26.8 24.4 13.9 45 7.8 E 19 26 10 14 1017.6 - 0.0
22/12:00pm 26.5 24.1 13.9 45 7.6 E 19 26 10 14 1018.0 1016.0 0.0
22/11:30am 26.1 23.8 14.2 48 7.2 E 19 28 10 15 1018.5 - 0.0
22/11:00am 25.8 23.2 15.8 54 6.2 NE 24 32 13 17 1018.6 - 0.0
22/10:30am 25.2 23.0 14.9 52 6.3 ENE 20 32 11 17 1018.8 - 0.0
22/10:00am 24.5 22.4 15.1 55 5.7 ENE 20 32 11 17 1019.0 - 0.0
22/09:30am 23.6 21.4 14.9 58 5.3 E 20 28 11 15 1019.2 - 0.0
22/09:00am 23.1 21.5 14.9 60 4.9 E 17 24 9 13 1019.4 1017.3 0.0
22/08:00am 22.1 19.4 15.7 67 3.9 ENE 24 30 13 16 1019.2 - 0.0
22/07:17am 20.9 18.6 15.7 72 3.2 E 22 28 12 15 1018.8 - 0.0
22/07:00am 20.0 17.6 15.4 75 2.8 ENE 22 28 12 15 1018.7 - 0.0
22/06:33am 20.0 19.5 15.8 77 2.5 E 13 17 7 9 1018.7 - 0.0
22/06:30am 20.0 19.5 15.8 77 2.5 E 13 19 7 10 1018.6 - 0.0
22/06:00am 19.7 19.2 16.0 79 2.2 E 13 15 7 8 1018.1 1016.1 0.0
22/05:30am 18.7 18.6 16.1 85 1.6 E 11 15 6 8 1017.5 - 0.0
22/05:00am 18.2 18.0 15.8 86 1.4 E 11 15 6 8 1017.2 - 0.0
22/04:30am 19.3 17.6 16.2 82 1.9 ENE 20 28 11 15 1016.9 - 0.0
22/04:22am 19.4 17.9 16.2 82 1.9 ENE 19 24 10 13 1016.8 - 0.0
22/04:00am 19.5 19.2 16.5 83 1.8 ENE 13 19 7 10 1017.0 - 0.0
22/03:30am 19.3 19.5 16.7 85 1.6 ENE 11 15 6 8 1017.1 - 0.0
22/03:10am 19.3 18.7 16.7 85 1.6 ENE 15 19 8 10 1017.0 - 0.0
22/03:00am 19.1 18.0 16.3 84 1.7 ENE 17 20 9 11 1016.9 1014.8 0.0
22/02:30am 19.6 18.7 16.8 84 1.7 ENE 17 24 9 13 1017.0 - 0.0
22/02:00am 20.0 18.5 16.4 80 2.2 ENE 19 24 10 13 1017.3 - 0.0
22/01:30am 20.3 18.6 16.3 78 2.4 ENE 20 26 11 14 1017.6 - 0.0
22/01:00am 20.3 19.2 16.3 78 2.4 NE 17 24 9 13 1017.7 - 0.0
22/12:30am 19.9 18.5 16.5 81 2.1 ENE 19 22 10 12 1017.7 - 0.0
22/12:00am 20.1 18.1 16.5 80 2.2 ENE 22 26 12 14 1017.7 1015.7 0.0
 
Date/Time
EST
Temp
°C
App
Temp
°C
Dew
Point
Rel
Hum
%
Delta-T
°C
Wind Press
QNH
hPa
Press
MSL
hPa
Rain
since 9 am
mm
Dir
 
Spd
km/h
Gust
km/h
Spd
kts
Gust
kts
21/11:30pm 20.3 17.9 16.3 78 2.4 ENE 24 32 13 17 1017.9 - 0.0
21/11:00pm 20.3 17.5 16.3 78 2.4 ENE 26 35 14 19 1018.0 - 0.0
21/10:30pm 20.7 18.0 16.5 77 2.6 ENE 26 33 14 18 1018.6 - 0.0
21/10:00pm 21.0 19.0 16.4 75 2.8 ENE 22 28 12 15 1018.8 - 0.0
21/09:30pm 21.5 18.3 16.2 72 3.3 ENE 28 35 15 19 1018.4 - 0.0
21/09:00pm 22.1 19.0 16.6 71 3.4 ENE 28 37 15 20 1017.6 1015.6 0.0
21/08:30pm 22.7 20.8 16.7 69 3.7 ENE 22 30 12 16 1017.5 - 0.0
21/08:00pm 23.3 20.2 16.6 66 4.2 ENE 28 39 15 21 1017.5 - 0.0
21/07:30pm 24.1 21.4 16.6 63 4.7 ENE 26 35 14 19 1017.1 - 0.0
21/07:00pm 24.9 22.4 16.1 58 5.5 ENE 24 32 13 17 1016.5 - 0.0
21/06:30pm 25.5 22.8 15.5 54 6.2 ENE 24 30 13 16 1015.9 - 0.0
21/06:00pm 26.3 23.5 15.4 51 6.7 ENE 24 30 13 16 1015.3 1013.2 0.0
21/05:30pm 26.5 23.6 15.2 49 7.0 ENE 24 32 13 17 1015.2 - 0.0
21/05:00pm 27.8 25.8 15.5 47 7.6 E 20 24 11 13 1015.0 - 0.0
21/04:30pm 27.8 25.6 14.8 45 8.0 ENE 20 30 11 16 1015.0 - 0.0
21/04:00pm 28.5 27.7 16.1 47 7.8 E 15 22 8 12 1015.1 - 0.0
21/03:30pm 27.0 25.4 15.1 48 7.3 ENE 17 24 9 13 1015.4 - 0.0
21/03:00pm 28.2 27.0 16.1 47 7.6 ENE 17 24 9 13 1015.9 1013.8 0.0
21/02:30pm 27.7 27.1 15.7 48 7.5 ENE 13 24 7 13 1016.4 - 0.0
21/02:00pm 27.8 28.0 16.7 50 7.0 NE 11 19 6 10 1016.7 - 0.0
21/01:30pm 26.5 24.6 15.2 49 7.0 NE 19 26 10 14 1016.9 - 0.0
21/01:00pm 26.9 25.6 15.9 51 6.9 ENE 17 20 9 11 1017.4 - 0.0
21/12:30pm 26.0 25.2 15.1 51 6.7 NE 13 22 7 12 1017.7 - 0.0
21/12:00pm 26.2 24.9 15.9 53 6.4 NE 17 28 9 15 1018.1 1016.1 0.0
21/11:30am 26.3 24.7 16.0 53 6.4 NE 19 28 10 15 1018.6 - 0.0
21/11:00am 25.1 23.2 15.1 53 6.1 NE 19 26 10 14 1018.9 - 0.0
21/10:30am 25.1 23.1 15.4 55 6.0 NE 20 30 11 16 1019.1 - 0.0
21/10:00am 24.9 23.1 15.5 56 5.8 NE 19 37 10 20 1019.3 - 0.0
21/09:30am 24.3 22.1 16.0 60 5.1 NE 22 32 12 17 1019.3 - 0.0
21/09:00am 23.9 21.2 15.7 60 5.0 ENE 24 33 13 18 1019.2 1017.1 0.0
21/08:30am 22.8 19.1 15.1 62 4.7 ENE 28 37 15 20 1019.3 - 0.0
21/08:00am 22.7 19.4 16.0 66 4.1 ENE 28 35 15 19 1019.4 - 0.0
21/07:30am 21.1 17.5 15.2 69 3.6 ENE 28 33 15 18 1019.4 - 0.0
21/07:00am 21.6 18.3 16.1 71 3.4 ENE 28 37 15 20 1018.8 - 0.0
21/06:30am 20.4 17.8 16.0 76 2.7 ENE 24 30 13 16 1018.3 - 0.0
21/06:00am 19.6 17.8 16.1 80 2.1 ENE 20 28 11 15 1018.0 1016.0 0.0
21/05:30am 19.2 17.4 15.9 81 2.0 ENE 20 30 11 16 1017.6 - 0.0
21/05:00am 18.9 17.3 15.9 83 1.8 ENE 19 26 10 14 1017.3 - 0.0
21/04:30am 18.8 16.6 15.9 83 1.8 ENE 22 30 12 16 1016.9 - 0.0
21/04:00am 18.7 16.8 15.8 83 1.7 ENE 20 24 11 13 1016.7 - 0.0
21/03:30am 18.5 16.5 15.6 83 1.7 ENE 20 26 11 14 1016.5 - 0.0
21/03:00am 18.7 16.7 15.6 82 1.9 ENE 20 28 11 15 1016.4 1014.3 0.0
21/02:30am 19.0 16.3 15.7 81 2.0 E 24 33 13 18 1016.3 - 0.0
21/02:00am 19.1 16.8 15.6 80 2.1 E 22 30 12 16 1016.4 - 0.0
21/01:30am 19.3 17.3 15.6 79 2.2 ENE 20 28 11 15 1016.6 - 0.0
21/01:00am 19.6 16.9 15.7 78 2.4 ENE 24 30 13 16 1016.6 - 0.0
21/12:30am 19.8 16.7 15.7 77 2.5 E 26 35 14 19 1016.7 - 0.0
21/12:00am 20.0 16.6 15.8 77 2.5 E 28 35 15 19 1016.9 1014.8 0.0
 
Date/Time
EST
Temp
°C
App
Temp
°C
Dew
Point
Rel
Hum
%
Delta-T
°C
Wind Press
QNH
hPa
Press
MSL
hPa
Rain
since 9 am
mm
Dir
 
Spd
km/h
Gust
km/h
Spd
kts
Gust
kts
20/11:30pm 20.6 18.2 16.4 77 2.6 ENE 24 35 13 19 1017.1 - 0.0
20/11:00pm 20.9 17.9 16.7 77 2.6 ENE 28 37 15 20 1017.2 - 0.0
20/10:44pm 20.8 17.8 16.8 78 2.5 ENE 28 35 15 19 1017.2 - 0.0
20/10:30pm 20.7 18.5 16.9 79 2.4 ENE 24 33 13 18 1017.3 - 0.0
20/10:00pm 21.0 18.0 16.8 77 2.6 ENE 28 35 15 19 1017.3 - 0.0
20/09:30pm 21.2 18.2 16.8 76 2.7 ENE 28 35 15 19 1017.1 - 0.0
20/09:00pm 21.4 17.9 16.6 74 3.0 ENE 30 37 16 20 1016.9 1014.8 0.0
20/08:30pm 21.6 18.0 16.3 72 3.3 ENE 30 39 16 21 1016.5 - 0.0
20/08:00pm 22.1 18.9 16.4 70 3.5 ENE 28 37 15 20 1016.1 - 0.0
20/07:30pm 22.5 19.4 16.5 69 3.7 ENE 28 37 15 20 1015.3 - 0.0
20/07:00pm 23.5 20.3 16.3 64 4.5 ENE 28 35 15 19 1014.8 - 0.0
20/06:30pm 24.5 20.9 16.2 60 5.2 NE 30 43 16 23 1014.3 - 0.0
20/06:00pm 26.1 22.8 16.1 54 6.2 ENE 28 35 15 19 1013.9 1011.8 0.0
20/05:30pm 26.8 23.6 16.4 53 6.5 ENE 28 35 15 19 1013.5 - 0.0
20/05:00pm 27.5 24.4 16.5 51 6.9 ENE 28 33 15 18 1013.2 - 0.0
20/04:30pm 28.0 25.6 16.3 49 7.4 ENE 24 33 13 18 1012.9 - 0.0
20/04:00pm 28.2 24.7 15.5 46 7.9 ENE 28 33 15 18 1012.9 - 0.0
20/03:30pm 28.4 25.0 15.7 46 7.9 ENE 28 33 15 18 1013.1 - 0.0
20/03:00pm 28.1 25.6 17.0 51 7.1 ENE 26 33 14 18 1013.4 1011.3 0.0
20/02:30pm 28.7 27.4 16.9 48 7.5 NE 19 26 10 14 1013.6 - 0.0
20/02:00pm 27.9 27.4 16.8 50 7.0 NE 15 30 8 16 1013.9 - 0.0
20/01:30pm 27.8 27.0 14.1 43 8.3 ENE 11 17 6 9 1014.3 - 0.0
20/01:00pm 27.8 26.6 15.1 46 7.8 E 15 20 8 11 1014.6 - 0.0
20/12:30pm 28.3 27.1 16.2 47 7.6 ENE 17 30 9 16 1015.1 - 0.0
20/12:00pm 27.7 26.4 15.7 48 7.5 ENE 17 28 9 15 1015.7 1013.6 0.0
20/11:30am 26.8 25.8 15.5 50 7.0 NNE 15 26 8 14 1016.0 - 0.0
20/11:00am 26.5 24.7 15.5 50 6.8 NE 19 28 10 15 1016.3 - 0.0
20/10:30am 26.4 24.5 16.6 55 6.2 ENE 22 32 12 17 1016.6 - 0.0
20/10:00am 25.8 23.4 16.4 56 5.9 NE 24 35 13 19 1016.8 - 0.0
20/09:30am 24.9 21.7 16.3 59 5.4 ENE 28 33 15 18 1016.8 - 0.0
20/09:00am 24.3 20.5 15.8 59 5.2 ENE 30 37 16 20 1016.7 1014.6 0.0
20/08:30am 24.1 20.7 15.9 60 5.1 NE 28 39 15 21 1016.6 - 0.0
20/08:00am 23.4 19.5 15.5 61 4.8 NE 30 41 16 22 1016.5 - 0.0
20/07:30am 22.5 18.3 15.6 65 4.2 NE 32 44 17 24 1016.4 - 0.0
20/07:00am 21.4 17.3 15.9 71 3.4 ENE 32 43 17 23 1016.2 - 0.0
20/06:30am 20.8 16.8 16.2 75 2.8 ENE 32 41 17 22 1015.9 - 0.0
20/06:00am 20.1 18.1 16.5 80 2.2 ENE 22 30 12 16 1015.4 1013.4 0.0
20/05:30am 19.3 17.2 16.3 83 1.8 ENE 22 28 12 15 1015.1 - 0.0
20/05:00am 18.9 17.2 16.3 85 1.6 NE 20 30 11 16 1014.7 - 0.0
20/04:30am 19.2 16.8 16.4 84 1.7 NE 24 32 13 17 1014.3 - 0.0
20/04:00am 19.5 17.2 16.7 84 1.7 NE 24 33 13 18 1014.0 - 0.0
20/03:30am 19.6 17.4 16.8 84 1.7 ENE 24 33 13 18 1013.9 - 0.0
20/03:00am 19.9 17.8 17.1 84 1.7 ENE 24 32 13 17 1013.9 1011.8 0.0
20/02:30am 20.2 18.1 17.2 83 1.9 ENE 24 32 13 17 1013.8 - 0.0
20/02:00am 20.4 18.4 17.4 83 1.9 ENE 24 33 13 18 1013.8 - 0.0
20/01:30am 20.4 18.8 17.4 83 1.9 ENE 22 30 12 16 1014.0 - 0.0
20/01:00am 20.6 18.5 17.2 81 2.1 ENE 24 28 13 15 1014.2 - 0.0
20/12:30am 20.8 18.5 16.6 77 2.6 ENE 24 32 13 17 1014.4 - 0.0
20/12:00am 21.0 17.8 16.2 74 2.9 E 28 32 15 17 1014.4 1012.3 0.0
 
Date/Time
EST
Temp
°C
App
Temp
°C
Dew
Point
Rel
Hum
%
Delta-T
°C
Wind Press
QNH
hPa
Press
MSL
hPa
Rain
since 9 am
mm
Dir
 
Spd
km/h
Gust
km/h
Spd
kts
Gust
kts
19/11:30pm 21.3 18.0 16.0 72 3.2 E 28 39 15 21 1014.5 - 0.0
19/11:00pm 21.8 17.8 16.1 70 3.5 E 32 39 17 21 1014.6 - 0.0
19/10:30pm 21.8 20.3 17.8 78 2.5 E 22 32 12 17 1014.6 - 0.0
19/10:00pm 21.0 20.7 17.4 80 2.2 E 15 20 8 11 1014.5 - 0.0

Other Formats:

Comma delimited format used in spreadsheet applications
http://www.bom.gov.au/fwo/IDQ60801/IDQ60801.94552.axf

JavaScript Object Notation format (JSON) in row-major order
http://www.bom.gov.au/fwo/IDQ60801/IDQ60801.94552.json